Time;durP1;ratioP1;P1;durP2;ratioP2;P2;SDS_P1;SDS_P2;PMS_P1;PMS_P2;Temp;Humidity;BMP_temperature;BMP_pressure;BME280_temperature;BME280_humidity;BME280_pressure;Samples;Min_cycle;Max_cycle;Signal;HPM_P1;HPM_P2
2022/10/02 08:53:31;;;;;;;;;2.00;1.00;;;;;20.22;72.47;101726.22;4860671;26;49957;-68
2022/10/02 08:56:18;;;;;;;;;0.50;0.50;;;;;20.26;71.70;101730.63;4928251;28;49418;-77
2022/10/02 08:59:11;;;;;;;;;1.00;1.00;;;;;20.27;71.75;101705.78;4926005;28;49420;-75
2022/10/02 09:01:48;;;;;;;;;2.25;1.25;;;;;20.71;71.44;101735.81;4925852;28;51942;-75
2022/10/02 09:04:59;;;;;;;;;0.00;0.00;;;;;20.85;70.53;101733.97;4925997;28;49705;-74
2022/10/02 09:07:46;;;;;;;;;1.25;1.25;;;;;20.89;69.93;101740.16;4924988;28;49847;-75
2022/10/02 09:10:30;;;;;;;;;0.50;0.00;;;;;20.89;70.37;101741.06;4917347;28;49411;-73
2022/10/02 09:13:31;;;;;;;;;1.00;0.00;;;;;20.83;69.54;101739.28;4928336;28;49864;-83
2022/10/02 09:15:56;;;;;;;;;1.75;1.00;;;;;20.83;69.47;101741.97;4925950;28;49576;-78
2022/10/02 09:18:47;;;;;;;;;1.00;1.00;;;;;20.87;69.27;101740.19;4946093;28;49685;-85
2022/10/02 09:21:17;;;;;;;;;0.00;0.00;;;;;21.13;69.30;101723.97;4931902;28;49447;-70
2022/10/02 09:24:16;;;;;;;;;1.50;0.50;;;;;21.31;68.91;101720.31;4932024;28;49498;-74
2022/10/02 09:27:06;;;;;;;;;0.25;0.25;;;;;21.56;68.36;101721.88;4932516;28;49281;-76
2022/10/02 09:30:03;;;;;;;;;0.50;0.50;;;;;21.99;66.76;101722.31;4929705;28;49392;-76
2022/10/02 09:32:43;;;;;;;;;1.50;0.50;;;;;22.11;65.56;101720.44;4931881;28;49623;-74
2022/10/02 09:35:36;;;;;;;;;1.25;0.00;;;;;22.02;65.15;101739.22;4926025;28;49988;-68
2022/10/02 09:38:26;;;;;;;;;0.25;0.00;;;;;21.89;65.47;101730.44;4933813;28;49486;-70
2022/10/02 09:41:15;;;;;;;;;0.00;0.00;;;;;21.87;66.33;101721.56;4928859;28;49451;-75
2022/10/02 09:44:18;;;;;;;;;1.50;1.50;;;;;21.82;65.92;101720.75;4932937;28;49277;-74
2022/10/02 09:47:02;;;;;;;;;0.75;0.00;;;;;21.84;65.70;101717.13;4932697;28;49993;-66
2022/10/02 09:49:43;;;;;;;;;0.00;0.00;;;;;22.02;65.17;101729.44;4932694;28;49314;-68
2022/10/02 09:52:44;;;;;;;;;0.00;0.00;;;;;21.94;65.05;101693.88;4931915;28;49489;-66
2022/10/02 09:55:41;;;;;;;;;0.00;0.00;;;;;22.15;65.44;101716.81;4931878;28;49301;-70
2022/10/02 09:58:15;;;;;;;;;0.00;0.00;;;;;22.37;64.88;101729.03;4932571;28;50019;-72
2022/10/02 10:01:11;;;;;;;;;0.00;0.00;;;;;22.42;63.66;101734.31;4933085;28;49458;-70
2022/10/02 10:04:02;;;;;;;;;0.00;0.00;;;;;22.47;63.50;101732.47;4932191;28;49213;-72
2022/10/02 10:06:37;;;;;;;;;0.00;0.00;;;;;22.41;62.95;101714.72;4932525;28;49555;-65
2022/10/02 10:09:05;;;;;;;;;0.00;0.00;;;;;22.60;63.19;101728.75;4932645;28;49901;-70
2022/10/02 10:11:43;;;;;;;;;0.00;0.00;;;;;22.53;62.98;101690.47;4932299;28;49656;-72
2022/10/02 10:14:28;;;;;;;;;0.75;0.00;;;;;22.83;62.32;101731.97;4932771;28;49503;-73
2022/10/02 10:17:08;;;;;;;;;0.50;0.00;;;;;22.90;62.42;101732.81;4931261;28;49252;-66
2022/10/02 10:20:11;;;;;;;;;0.25;0.25;;;;;22.90;61.46;101730.13;4928104;28;49865;-67
2022/10/02 10:23:06;;;;;;;;;0.00;0.00;;;;;22.96;61.70;101734.50;4930541;28;49738;-74
2022/10/02 10:25:52;;;;;;;;;0.75;0.75;;;;;23.06;60.51;101728.97;4899174;28;49946;-73
2022/10/02 10:28:39;;;;;;;;;0.00;0.00;;;;;23.20;60.80;101722.53;4917736;28;49853;-69
2022/10/02 10:31:17;;;;;;;;;0.00;0.00;;;;;23.29;59.46;101714.34;4923984;28;52385;-74
2022/10/02 10:34:30;;;;;;;;;0.00;0.00;;;;;23.29;58.55;101717.03;4928192;28;49616;-71
2022/10/02 10:40:16;;;;;;;;;0.00;0.00;;;;;23.36;58.62;101714.22;4929611;28;49791;-75
2022/10/02 10:42:48;;;;;;;;;0.25;0.25;;;;;23.48;58.72;101726.50;4928354;28;50006;-69
2022/10/02 10:45:50;;;;;;;;;0.75;0.00;;;;;23.59;58.83;101718.31;4930226;28;49370;-70
2022/10/02 10:48:55;;;;;;;;;0.00;0.00;;;;;23.51;58.03;101729.13;4923389;28;49836;-75
2022/10/02 10:51:39;;;;;;;;;0.00;0.00;;;;;23.29;58.30;101728.63;4918941;28;49937;-72
2022/10/02 10:54:43;;;;;;;;;0.00;0.00;;;;;23.28;58.44;101724.19;4917984;28;49959;-73
2022/10/02 10:57:30;;;;;;;;;2.75;0.50;;;;;23.32;58.54;101719.63;4915739;28;49755;-69
2022/10/02 11:00:17;;;;;;;;;0.00;0.00;;;;;23.43;59.19;101723.00;4918802;28;49841;-74
2022/10/02 11:02:53;;;;;;;;;0.50;0.50;;;;;23.42;57.77;101713.22;4914862;28;49963;-70
2022/10/02 11:05:22;;;;;;;;;0.00;0.00;;;;;23.39;57.92;101721.31;4920636;28;50473;-69
2022/10/02 11:08:26;;;;;;;;;0.00;0.00;;;;;23.40;57.73;101713.25;4914466;28;49739;-69
2022/10/02 11:11:00;;;;;;;;;0.00;0.00;;;;;23.49;57.13;101714.88;4924103;28;49655;-69
2022/10/02 11:13:47;;;;;;;;;1.00;1.00;;;;;23.50;57.20;101718.44;4914279;28;49888;-70
2022/10/02 11:16:36;;;;;;;;;0.00;0.00;;;;;22.55;57.63;101568.22;4914739;28;49742;-71
2022/10/02 11:19:16;;;;;;;;;0.00;0.00;;;;;23.32;57.59;101714.28;4922934;28;49561;-70
2022/10/02 11:22:06;;;;;;;;;0.00;0.00;;;;;23.15;57.11;101714.53;4922620;28;49342;-71
2022/10/02 11:24:59;;;;;;;;;0.00;0.00;;;;;22.85;57.95;101731.97;4921483;28;49806;-72
2022/10/02 11:28:02;;;;;;;;;2.00;1.25;;;;;22.55;58.97;101726.09;4922901;28;50419;-75
2022/10/02 11:31:07;;;;;;;;;1.00;1.00;;;;;21.98;60.36;101666.19;4926241;28;49799;-73
2022/10/02 11:33:47;;;;;;;;;1.75;1.75;;;;;22.37;60.37;101745.06;4923959;28;49559;-70
2022/10/02 11:36:43;;;;;;;;;0.00;0.00;;;;;22.35;60.32;101746.88;4923152;28;50192;-77
2022/10/02 11:39:35;;;;;;;;;0.25;0.25;;;;;21.67;60.01;101642.47;4915317;28;50539;-84
2022/10/02 11:42:16;;;;;;;;;0.00;0.00;;;;;22.04;60.55;101714.25;4925142;28;49914;-69
2022/10/02 11:45:03;;;;;;;;;0.00;0.00;;;;;22.08;62.36;101758.78;4918716;28;49822;-74
2022/10/02 11:47:46;;;;;;;;;2.00;1.00;;;;;21.78;66.41;101757.28;4923216;28;49594;-71
2022/10/02 11:50:34;;;;;;;;;0.00;0.00;;;;;21.75;68.05;101775.16;4918973;28;50853;-72
2022/10/02 11:53:28;;;;;;;;;0.00;0.00;;;;;21.45;68.78;101745.13;4921368;28;49787;-71
2022/10/02 11:56:13;;;;;;;;;0.00;0.00;;;;;21.62;70.54;101775.25;4925958;28;49703;-71
2022/10/02 11:58:59;;;;;;;;;1.75;0.00;;;;;21.51;70.78;101749.50;4929186;28;49738;-70
2022/10/02 12:01:44;;;;;;;;;1.25;1.25;;;;;21.69;70.37;101768.06;4921665;28;50795;-70
2022/10/02 12:04:09;;;;;;;;;0.50;0.50;;;;;21.90;70.71;101773.19;4923452;28;49197;-70
2022/10/02 12:07:04;;;;;;;;;0.00;0.00;;;;;21.98;69.27;101778.47;4923310;28;49518;-70
2022/10/02 12:09:53;;;;;;;;;3.00;2.25;;;;;22.10;70.03;101774.81;4928497;28;49545;-71
2022/10/02 12:12:35;;;;;;;;;0.00;0.00;;;;;21.74;69.26;101709.22;4927991;28;49757;-70
2022/10/02 12:15:09;;;;;;;;;0.75;0.75;;;;;22.01;69.28;101738.34;4923666;28;49541;-80
2022/10/02 12:17:52;;;;;;;;;0.75;0.75;;;;;22.24;67.77;101754.16;4922154;28;49838;-77
2022/10/02 12:27:08;;;;;;;;;1.25;0.50;;;;;22.62;64.77;101750.13;4928702;28;49565;-78
2022/10/02 12:30:02;;;;;;;;;0.75;0.75;;;;;22.42;64.94;101699.56;4929420;28;49398;-80
2022/10/02 12:32:57;;;;;;;;;0.00;0.00;;;;;22.66;64.32;101763.44;4929298;28;49658;-78
2022/10/02 12:35:59;;;;;;;;;0.25;0.00;;;;;22.76;63.13;101751.69;4929243;28;50168;-78
2022/10/02 12:38:49;;;;;;;;;0.00;0.00;;;;;22.82;63.39;101750.72;4928053;28;49552;-77
2022/10/02 12:41:59;;;;;;;;;0.00;0.00;;;;;22.85;64.05;101753.38;4927794;28;49568;-77
2022/10/02 12:44:57;;;;;;;;;2.00;0.00;;;;;22.96;67.00;101750.56;4931474;28;50083;-78
2022/10/02 12:47:43;;;;;;;;;0.00;0.00;;;;;23.14;64.76;101743.13;4927342;28;50644;-78
2022/10/02 12:50:23;;;;;;;;;0.00;0.00;;;;;22.61;63.50;101652.00;4929315;28;49407;-78
2022/10/02 12:53:04;;;;;;;;;0.00;0.00;;;;;23.43;62.79;101747.13;4930706;28;49707;-75
2022/10/02 12:55:44;;;;;;;;;0.00;0.00;;;;;23.75;60.67;101741.25;4930928;28;49563;-76
2022/10/02 12:58:22;;;;;;;;;0.00;0.00;;;;;23.88;59.88;101750.84;4933562;28;50003;-81
2022/10/02 13:01:07;;;;;;;;;0.00;0.00;;;;;23.43;59.55;101650.66;4931899;28;49434;-84
2022/10/02 13:04:11;;;;;;;;;0.00;0.00;;;;;23.79;58.69;101739.41;4931266;28;49790;-73
2022/10/02 13:07:00;;;;;;;;;0.00;0.00;;;;;23.53;59.40;101742.50;4931977;28;49828;-74
2022/10/02 13:09:42;;;;;;;;;0.00;0.00;;;;;23.24;59.97;101743.88;4933537;28;49980;-78
2022/10/02 13:12:50;;;;;;;;;0.00;0.00;;;;;22.96;60.52;101743.41;4931905;28;49722;-77
2022/10/02 13:15:26;;;;;;;;;0.00;0.00;;;;;21.92;61.01;101600.31;4930961;28;49691;-75
2022/10/02 13:17:57;;;;;;;;;0.00;0.00;;;;;22.65;62.44;101764.34;4931060;28;49640;-78
2022/10/02 13:20:47;;;;;;;;;0.00;0.00;;;;;22.56;62.61;101776.03;4926081;28;51961;-75
2022/10/02 13:23:30;;;;;;;;;0.75;0.00;;;;;22.46;62.26;101760.13;4927214;28;49574;-74
2022/10/02 13:26:14;;;;;;;;;0.00;0.00;;;;;22.32;62.42;101770.13;4925820;28;49549;-74
2022/10/02 13:28:49;;;;;;;;;0.50;0.00;;;;;21.90;62.79;101724.19;4932862;28;49281;-72
2022/10/02 13:31:43;;;;;;;;;0.00;0.00;;;;;21.84;63.48;101767.03;4932161;28;50767;-78
2022/10/02 13:34:11;;;;;;;;;0.00;0.00;;;;;21.79;66.52;101779.53;4931140;28;49587;-72
2022/10/02 13:36:50;;;;;;;;;25.25;12.00;;;;;20.42;100.00;101774.16;4925480;28;49810;-77
2022/10/02 13:39:32;;;;;;;;;3.50;1.50;;;;;18.66;100.00;102017.94;4946379;28;49538;-74
2022/10/02 13:42:17;;;;;;;;;0.50;0.00;;;;;17.83;100.00;101991.44;4932198;28;49382;-80
2022/10/02 13:45:10;;;;;;;;;0.25;0.00;;;;;16.97;100.00;101976.19;4933409;28;49364;-75
2022/10/02 13:47:48;;;;;;;;;0.00;0.00;;;;;16.50;100.00;102009.06;4925951;28;49269;-75
2022/10/02 13:50:33;;;;;;;;;0.00;0.00;;;;;16.44;100.00;102024.88;4930324;28;49369;-72
2022/10/02 13:53:27;;;;;;;;;0.00;0.00;;;;;16.47;100.00;102047.88;4931867;28;50079;-69
2022/10/02 13:56:16;;;;;;;;;0.00;0.00;;;;;16.74;100.00;102068.69;4930025;28;49654;-69
2022/10/02 13:59:14;;;;;;;;;0.00;0.00;;;;;-142.59;100.00;56100.38;4932338;28;49542;-75
2022/10/02 14:01:57;;;;;;;;;0.00;0.00;;;;;-142.59;100.00;56100.38;4926046;28;49377;-75
2022/10/02 14:04:42;;;;;;;;;0.00;0.00;;;;;-142.59;100.00;56100.38;4930030;28;49575;-70
2022/10/02 14:07:41;;;;;;;;;1.00;0.00;;;;;-142.59;100.00;56100.38;4924628;28;49581;-71
2022/10/02 14:10:27;;;;;;;;;0.00;0.00;;;;;-142.59;100.00;56100.38;4929334;28;49406;-71
2022/10/02 14:12:56;;;;;;;;;0.00;0.00;;;;;-142.59;100.00;56100.38;4931763;28;49597;-69
2022/10/02 14:15:50;;;;;;;;;0.00;0.00;;;;;-142.59;100.00;56100.38;4928340;28;50046;-69
2022/10/02 14:18:46;;;;;;;;;1.50;0.00;;;;;-142.59;100.00;56100.38;4921186;28;49730;-68
2022/10/02 14:21:34;;;;;;;;;0.00;0.00;;;;;-142.59;100.00;56100.38;4929174;28;49498;-68
2022/10/02 14:23:59;;;;;;;;;0.00;0.00;;;;;-142.59;100.00;56100.38;4929986;28;49416;-68
2022/10/02 14:26:49;;;;;;;;;0.75;0.00;;;;;-142.59;100.00;56100.38;4929464;28;52853;-68
2022/10/02 14:29:45;;;;;;;;;0.00;0.00;;;;;-142.59;100.00;56100.38;4929158;28;49711;-69
2022/10/02 14:32:19;;;;;;;;;0.00;0.00;;;;;-142.59;100.00;56100.38;4926054;28;49591;-70
2022/10/02 14:35:00;;;;;;;;;0.00;0.00;;;;;-142.59;100.00;56100.38;4916290;28;50040;-73
2022/10/02 14:37:50;;;;;;;;;0.00;0.00;;;;;-142.59;100.00;56100.38;4929047;28;50374;-74
2022/10/02 14:40:18;;;;;;;;;0.00;0.00;;;;;-142.59;100.00;56100.38;4919224;28;49910;-73
2022/10/02 14:43:19;;;;;;;;;1.00;1.00;;;;;-142.59;100.00;56100.38;4930615;28;49454;-72
2022/10/02 14:46:03;;;;;;;;;0.00;0.00;;;;;-142.59;100.00;56100.38;4888256;29;49838;-72
2022/10/02 14:48:50;;;;;;;;;0.00;0.00;;;;;-142.59;100.00;56100.38;4925536;28;49954;-73
2022/10/02 14:51:18;;;;;;;;;0.00;0.00;;;;;-142.59;100.00;56100.38;4920555;28;49782;-75
2022/10/02 14:53:57;;;;;;;;;0.00;0.00;;;;;-142.59;100.00;56100.38;4927505;28;49781;-75
2022/10/02 14:56:52;;;;;;;;;0.00;0.00;;;;;-142.59;100.00;56100.38;4929269;28;50079;-75
2022/10/02 14:59:27;;;;;;;;;0.00;0.00;;;;;-142.59;100.00;56100.38;4925005;28;49622;-75
2022/10/02 15:02:07;;;;;;;;;2.00;0.00;;;;;-142.59;100.00;56100.38;4928322;28;49446;-75
2022/10/02 15:04:39;;;;;;;;;0.75;0.75;;;;;-142.59;100.00;56100.38;4922873;28;49687;-73
2022/10/02 15:07:09;;;;;;;;;0.00;0.00;;;;;-142.59;100.00;56100.38;4929579;28;49750;-72
2022/10/02 15:09:48;;;;;;;;;1.00;0.00;;;;;-142.59;100.00;56100.38;4928867;28;49613;-73
2022/10/02 15:12:57;;;;;;;;;0.00;0.00;;;;;-142.59;100.00;56100.38;4929483;28;49684;-74
2022/10/02 15:15:31;;;;;;;;;0.00;0.00;;;;;-142.59;100.00;56100.38;4917021;28;49524;-75
2022/10/02 15:18:16;;;;;;;;;0.00;0.00;;;;;-142.59;100.00;56100.38;4930659;28;49476;-72
2022/10/02 15:20:59;;;;;;;;;1.25;0.00;;;;;-142.59;100.00;56100.38;4928039;28;49444;-74
2022/10/02 15:23:44;;;;;;;;;0.00;0.00;;;;;-142.59;100.00;56100.38;4927156;28;49443;-73
2022/10/02 15:26:21;;;;;;;;;0.00;0.00;;;;;-142.59;100.00;56100.38;4922185;28;49860;-73
2022/10/02 15:29:28;;;;;;;;;0.75;0.75;;;;;-142.59;100.00;56100.38;4926257;28;49870;-74
2022/10/02 15:32:28;;;;;;;;;0.00;0.00;;;;;-142.59;100.00;56100.38;4922752;28;49713;-73
2022/10/02 15:35:21;;;;;;;;;0.75;0.00;;;;;-142.59;100.00;56100.38;4928658;28;49747;-81
2022/10/02 15:38:24;;;;;;;;;0.00;0.00;;;;;-142.59;100.00;56100.38;4929425;28;49622;-77
2022/10/02 15:41:30;;;;;;;;;0.25;0.25;;;;;-142.59;100.00;56100.38;4930242;28;49876;-82
2022/10/02 15:44:15;;;;;;;;;0.00;0.00;;;;;-142.59;100.00;56100.38;4928554;28;49764;-79
2022/10/02 15:47:08;;;;;;;;;0.00;0.00;;;;;-142.59;100.00;56100.38;4928814;28;49570;-78
2022/10/02 15:49:52;;;;;;;;;0.00;0.00;;;;;-142.59;100.00;56100.38;4928586;28;49436;-81
2022/10/02 15:52:56;;;;;;;;;0.00;0.00;;;;;-142.59;100.00;56100.38;4928313;28;49685;-80
2022/10/02 15:55:37;;;;;;;;;1.00;1.00;;;;;-142.59;100.00;56100.38;4849040;29;49854;-79
2022/10/02 15:58:25;;;;;;;;;0.00;0.00;;;;;-142.59;100.00;56100.38;4852188;29;49277;-79
2022/10/02 16:01:02;;;;;;;;;0.00;0.00;;;;;-142.59;100.00;56100.38;4907256;28;49604;-79
2022/10/02 16:03:53;;;;;;;;;0.00;0.00;;;;;-142.59;100.00;56100.38;4929380;28;49659;-80
2022/10/02 16:06:49;;;;;;;;;0.00;0.00;;;;;-142.59;100.00;56100.38;4928708;28;49842;-79
2022/10/02 16:09:47;;;;;;;;;2.00;0.00;;;;;-142.59;100.00;56100.38;4927147;28;49475;-76
2022/10/02 16:12:39;;;;;;;;;1.00;1.00;;;;;-142.59;100.00;56100.38;4923681;28;49513;-86
2022/10/02 16:15:27;;;;;;;;;0.00;0.00;;;;;-142.59;100.00;56100.38;4929246;28;49605;-73
2022/10/02 16:18:12;;;;;;;;;2.00;1.00;;;;;-142.59;100.00;56100.38;4921605;28;49863;-73
2022/10/02 16:20:54;;;;;;;;;0.00;0.00;;;;;-142.59;100.00;56100.38;4932189;28;49571;-73
2022/10/02 16:23:31;;;;;;;;;1.25;1.25;;;;;-142.59;100.00;56100.38;4929270;28;49688;-74
2022/10/02 16:26:18;;;;;;;;;0.25;0.25;;;;;-142.59;100.00;56100.38;4928408;28;49414;-74
2022/10/02 16:28:52;;;;;;;;;1.00;1.00;;;;;-142.59;100.00;56100.38;4927107;28;50475;-74
2022/10/02 16:31:33;;;;;;;;;0.00;0.00;;;;;-142.59;100.00;56100.38;4928004;28;49608;-72
2022/10/02 16:34:19;;;;;;;;;1.00;1.00;;;;;-142.59;100.00;56100.38;4928640;28;49526;-74
2022/10/02 16:36:55;;;;;;;;;0.00;0.00;;;;;-142.59;100.00;56100.38;4928969;28;49540;-73
2022/10/02 16:39:53;;;;;;;;;1.00;1.00;;;;;-142.59;100.00;56100.38;4927778;28;50480;-74
2022/10/02 16:42:36;;;;;;;;;0.25;0.25;;;;;-142.59;100.00;56100.38;4930388;28;49438;-75
2022/10/02 16:45:26;;;;;;;;;2.00;1.00;;;;;-142.59;100.00;56100.38;4932887;28;49486;-75
2022/10/02 16:48:13;;;;;;;;;1.50;1.00;;;;;-142.59;100.00;56100.38;4927317;28;49969;-74
2022/10/02 16:51:01;;;;;;;;;1.00;1.00;;;;;-142.59;100.00;56100.38;4924945;28;50169;-74
2022/10/02 16:53:41;;;;;;;;;1.25;1.00;;;;;-142.59;100.00;56100.38;4919048;28;49782;-73
2022/10/02 16:56:14;;;;;;;;;1.00;1.00;;;;;-142.59;100.00;56100.38;4915355;28;49866;-73
2022/10/02 16:58:50;;;;;;;;;1.25;1.25;;;;;-142.59;100.00;56100.38;4904198;28;49884;-73
2022/10/02 17:01:56;;;;;;;;;1.00;1.00;;;;;-142.59;100.00;56100.38;4906075;28;50577;-74
2022/10/02 17:04:50;;;;;;;;;2.75;1.75;;;;;-142.59;100.00;56100.38;4885332;29;49936;-75
2022/10/02 17:07:46;;;;;;;;;1.75;1.75;;;;;-142.59;100.00;56100.38;4891775;29;49928;-74
2022/10/02 17:10:38;;;;;;;;;2.00;2.00;;;;;-142.59;100.00;56100.38;4916089;28;50360;-74
2022/10/02 17:13:26;;;;;;;;;2.00;1.00;;;;;-142.59;100.00;56100.38;4905531;28;49810;-74
2022/10/02 17:16:06;;;;;;;;;1.00;1.00;;;;;-142.59;100.00;56100.38;4905333;28;50006;-74
2022/10/02 17:18:47;;;;;;;;;0.50;0.50;;;;;-142.59;100.00;56100.38;4909553;28;49758;-73
2022/10/02 17:21:19;;;;;;;;;2.00;2.00;;;;;-142.59;100.00;56100.38;4908781;28;49629;-71
2022/10/02 17:24:18;;;;;;;;;1.00;1.00;;;;;-142.59;100.00;56100.38;4913331;28;50067;-72
2022/10/02 17:27:02;;;;;;;;;1.00;1.00;;;;;-142.59;100.00;56100.38;4909028;28;49855;-68
2022/10/02 17:29:44;;;;;;;;;1.00;1.00;;;;;-142.59;100.00;56100.38;4918858;28;49944;-72
2022/10/02 17:32:10;;;;;;;;;1.00;1.00;;;;;-142.59;100.00;56100.38;4910645;28;49809;-76
2022/10/02 17:34:49;;;;;;;;;1.00;1.00;;;;;-142.59;100.00;56100.38;4913158;28;50053;-69
2022/10/02 17:37:17;;;;;;;;;0.75;0.75;;;;;-142.59;100.00;56100.38;4913070;28;49681;-66
2022/10/02 17:40:10;;;;;;;;;0.00;0.00;;;;;-142.59;100.00;56100.38;4915882;28;49789;-68
2022/10/02 17:42:46;;;;;;;;;0.00;0.00;;;;;-142.59;100.00;56100.38;4915909;28;49742;-68
2022/10/02 17:45:25;;;;;;;;;0.00;0.00;;;;;-142.59;100.00;56100.38;4907721;28;49824;-71
2022/10/02 17:48:20;;;;;;;;;0.50;0.50;;;;;-142.59;100.00;56100.38;4915205;28;49776;-71
2022/10/02 17:50:48;;;;;;;;;0.00;0.00;;;;;-142.59;100.00;56100.38;4915720;28;49811;-69
2022/10/02 17:56:40;;;;;;;;;1.00;1.00;;;;;-142.59;100.00;56100.38;4915054;28;49781;-78
2022/10/02 17:59:22;;;;;;;;;0.00;0.00;;;;;-142.59;100.00;56100.38;4909858;28;49719;-73
2022/10/02 18:01:58;;;;;;;;;0.50;0.00;;;;;-142.59;100.00;56100.38;4915276;28;49795;-72
2022/10/02 18:04:33;;;;;;;;;2.75;2.00;;;;;-142.59;100.00;56100.38;4929475;28;49939;-73
2022/10/02 18:07:29;;;;;;;;;1.50;1.50;;;;;-142.59;100.00;56100.38;4915187;28;49723;-75
2022/10/02 18:10:19;;;;;;;;;2.25;1.25;;;;;-142.59;100.00;56100.38;4915073;28;49882;-73
2022/10/02 18:13:02;;;;;;;;;2.00;1.00;;;;;-142.59;100.00;56100.38;4915298;28;49866;-72
2022/10/02 18:15:35;;;;;;;;;1.00;1.00;;;;;-142.59;100.00;56100.38;4915357;28;49961;-68
2022/10/02 18:18:25;;;;;;;;;2.50;2.00;;;;;-142.59;100.00;56100.38;4914841;28;50065;-73
2022/10/02 18:21:08;;;;;;;;;1.25;1.25;;;;;-142.59;100.00;56100.38;4928972;28;49884;-70
2022/10/02 18:24:12;;;;;;;;;2.25;2.25;;;;;-142.59;100.00;56100.38;4915288;28;50048;-73
2022/10/02 18:26:40;;;;;;;;;2.50;2.00;;;;;-142.59;100.00;56100.38;4915263;28;50296;-69
2022/10/02 18:29:36;;;;;;;;;2.00;2.00;;;;;-142.59;100.00;56100.38;4914883;28;50799;-70
2022/10/02 18:32:39;;;;;;;;;2.75;2.00;;;;;-142.59;100.00;56100.38;4914766;28;49832;-68
2022/10/02 18:35:30;;;;;;;;;1.25;1.25;;;;;-142.59;100.00;56100.38;4914500;28;49747;-71
2022/10/02 18:38:08;;;;;;;;;2.00;1.25;;;;;-142.59;100.00;56100.38;4914979;28;49922;-69
2022/10/02 18:40:48;;;;;;;;;2.00;2.00;;;;;-142.59;100.00;56100.38;4914558;28;50455;-69
2022/10/02 18:43:50;;;;;;;;;1.00;1.00;;;;;-142.59;100.00;56100.38;4914635;28;49750;-69
2022/10/02 18:46:36;;;;;;;;;2.00;2.00;;;;;-142.59;100.00;56100.38;4914874;28;49973;-68
2022/10/02 18:49:39;;;;;;;;;3.00;2.00;;;;;-142.59;100.00;56100.38;4914527;28;50105;-68
2022/10/02 18:52:46;;;;;;;;;3.00;2.00;;;;;-142.59;100.00;56100.38;4914185;28;50012;-66
2022/10/02 18:55:33;;;;;;;;;1.00;1.00;;;;;-142.59;100.00;56100.38;4929579;28;49786;-75
2022/10/02 18:57:58;;;;;;;;;2.00;2.00;;;;;-142.59;100.00;56100.38;4914526;28;49847;-70
2022/10/02 19:00:59;;;;;;;;;3.00;3.00;;;;;-142.59;100.00;56100.38;4928919;28;49907;-71
2022/10/02 19:03:40;;;;;;;;;2.00;2.00;;;;;-142.59;100.00;56100.38;4914052;28;50435;-72
2022/10/02 19:06:23;;;;;;;;;2.00;1.50;;;;;-142.59;100.00;56100.38;4928198;28;49860;-72
2022/10/02 19:08:56;;;;;;;;;2.75;2.75;;;;;-142.59;100.00;56100.38;4912561;28;49862;-72
2022/10/02 19:11:27;;;;;;;;;3.00;3.00;;;;;-142.59;100.00;56100.38;4915928;28;49814;-73
2022/10/02 19:13:53;;;;;;;;;3.50;3.50;;;;;-142.59;100.00;56100.38;4913761;28;50365;-73
2022/10/02 19:16:24;;;;;;;;;4.00;3.00;;;;;-142.59;100.00;56100.38;4914023;28;49729;-73
2022/10/02 19:19:17;;;;;;;;;2.75;2.75;;;;;-142.59;100.00;56100.38;4914405;28;49696;-74
2022/10/02 19:21:43;;;;;;;;;3.00;3.00;;;;;-142.59;100.00;56100.38;4914228;28;49742;-74
2022/10/02 19:24:22;;;;;;;;;3.00;3.00;;;;;-142.59;100.00;56100.38;4913788;28;50692;-73
2022/10/02 19:26:53;;;;;;;;;5.50;2.00;;;;;-142.59;100.00;56100.38;4914111;28;49873;-73
2022/10/02 19:29:47;;;;;;;;;2.00;2.00;;;;;-142.59;100.00;56100.38;4919290;28;50207;-73
2022/10/02 19:32:41;;;;;;;;;7.00;7.00;;;;;-142.59;100.00;56100.38;4915921;28;49918;-73
2022/10/02 19:35:27;;;;;;;;;10.25;9.00;;;;;-142.59;100.00;56100.38;4914448;28;49927;-73
2022/10/02 19:37:58;;;;;;;;;7.75;7.75;;;;;-142.59;100.00;56100.38;4913918;28;49880;-73
2022/10/02 19:40:30;;;;;;;;;16.50;15.50;;;;;-142.59;100.00;56100.38;4913929;28;49788;-72
2022/10/02 19:43:04;;;;;;;;;11.50;9.75;;;;;-142.59;100.00;56100.38;4914305;28;49932;-71
2022/10/02 19:45:34;;;;;;;;;20.75;19.75;;;;;-142.59;100.00;56100.38;4917100;28;49782;-73
2022/10/02 19:48:05;;;;;;;;;16.50;14.50;;;;;-142.59;100.00;56100.38;4918765;28;50110;-72
2022/10/02 19:50:43;;;;;;;;;37.50;29.00;;;;;-142.59;100.00;56100.38;4913355;28;49739;-73
2022/10/02 19:53:29;;;;;;;;;26.00;25.25;;;;;-142.59;100.00;56100.38;4914601;28;49751;-74
2022/10/02 19:55:57;;;;;;;;;31.50;27.00;;;;;-142.59;100.00;56100.38;4913263;28;50989;-73
2022/10/02 19:58:47;;;;;;;;;38.50;34.50;;;;;-142.59;100.00;56100.38;4913836;28;49885;-74
2022/10/02 20:01:43;;;;;;;;;49.00;37.75;;;;;-142.59;100.00;56100.38;4913092;28;49987;-74
2022/10/02 20:04:18;;;;;;;;;46.00;34.50;;;;;-142.59;100.00;56100.38;4912964;28;49648;-73
2022/10/02 20:06:51;;;;;;;;;62.25;46.25;;;;;-142.59;100.00;56100.38;4914379;28;49786;-74
2022/10/02 20:09:32;;;;;;;;;55.00;44.00;;;;;-142.59;100.00;56100.38;4913295;28;49906;-74
2022/10/02 20:12:03;;;;;;;;;38.50;31.75;;;;;-142.59;100.00;56100.38;4915194;28;49850;-74
2022/10/02 20:14:33;;;;;;;;;32.25;29.25;;;;;-142.59;100.00;56100.38;4919228;28;49869;-73
2022/10/02 20:17:07;;;;;;;;;23.25;19.00;;;;;-142.59;100.00;56100.38;4919535;28;49795;-73
2022/10/02 20:19:44;;;;;;;;;23.75;19.50;;;;;-142.59;100.00;56100.38;4908109;28;49721;-73
2022/10/02 20:22:29;;;;;;;;;22.75;20.75;;;;;-142.59;100.00;56100.38;4919083;28;49885;-74
2022/10/02 20:25:08;;;;;;;;;17.75;16.25;;;;;-142.59;100.00;56100.38;4913368;28;49842;-74
2022/10/02 20:27:52;;;;;;;;;26.75;25.50;;;;;-142.59;100.00;56100.38;4913152;28;49736;-73
2022/10/02 20:30:21;;;;;;;;;23.50;20.25;;;;;-142.59;100.00;56100.38;4915222;28;49990;-74
2022/10/02 20:32:58;;;;;;;;;17.75;16.50;;;;;-142.59;100.00;56100.38;4913306;28;49805;-73
2022/10/02 20:35:34;;;;;;;;;15.75;15.75;;;;;-142.59;100.00;56100.38;4913056;28;49837;-74
2022/10/02 20:38:09;;;;;;;;;8.50;8.50;;;;;-142.59;100.00;56100.38;4913109;28;50420;-74
2022/10/02 20:40:36;;;;;;;;;12.75;11.75;;;;;-142.59;100.00;56100.38;4912834;28;49841;-74
2022/10/02 20:43:19;;;;;;;;;13.50;9.50;;;;;-142.59;100.00;56100.38;4913096;28;50069;-73
2022/10/02 20:45:49;;;;;;;;;13.75;12.00;;;;;-142.59;100.00;56100.38;4906920;28;49820;-73
2022/10/02 20:48:39;;;;;;;;;8.50;8.50;;;;;-142.59;100.00;56100.38;4908914;28;51667;-73
2022/10/02 20:51:20;;;;;;;;;15.00;10.25;;;;;-142.59;100.00;56100.38;4922350;28;50088;-73
2022/10/02 20:54:03;;;;;;;;;12.25;12.25;;;;;-142.59;100.00;56100.38;4913075;28;49755;-74
2022/10/02 20:56:54;;;;;;;;;12.25;11.50;;;;;-142.59;100.00;56100.38;4913499;28;49693;-74
2022/10/02 20:59:46;;;;;;;;;13.50;13.50;;;;;-142.59;100.00;56100.38;4916515;28;49664;-74
2022/10/02 21:02:15;;;;;;;;;14.50;12.50;;;;;-142.59;100.00;56100.38;4913828;28;49810;-75
2022/10/02 21:04:52;;;;;;;;;10.75;10.75;;;;;-142.59;100.00;56100.38;4914633;28;50012;-76
2022/10/02 21:07:25;;;;;;;;;11.25;10.25;;;;;-142.59;100.00;56100.38;4912833;28;50099;-74
2022/10/02 21:10:27;;;;;;;;;11.25;10.00;;;;;-142.59;100.00;56100.38;4915770;28;51013;-75
2022/10/02 21:12:55;;;;;;;;;14.50;10.25;;;;;-142.59;100.00;56100.38;4915098;28;51030;-74
2022/10/02 21:15:56;;;;;;;;;14.75;11.75;;;;;-142.59;100.00;56100.38;4915317;28;50810;-72
2022/10/02 21:19:02;;;;;;;;;9.50;9.25;;;;;-142.59;100.00;56100.38;4928396;28;49770;-73
2022/10/02 21:21:55;;;;;;;;;11.50;11.50;;;;;-142.59;100.00;56100.38;4914384;28;49923;-75
2022/10/02 21:24:59;;;;;;;;;11.25;11.25;;;;;-142.59;100.00;56100.38;4918578;28;50067;-75
2022/10/02 21:27:48;;;;;;;;;12.75;10.75;;;;;-142.59;100.00;56100.38;4915745;28;49786;-74
2022/10/02 21:30:16;;;;;;;;;14.50;13.00;;;;;-142.59;100.00;56100.38;4896947;28;50111;-75
2022/10/02 21:33:04;;;;;;;;;12.75;11.75;;;;;-142.59;100.00;56100.38;4915613;28;50931;-75
2022/10/02 21:35:42;;;;;;;;;11.75;11.00;;;;;-142.59;100.00;56100.38;4915467;28;49895;-75
2022/10/02 21:38:45;;;;;;;;;13.25;9.75;;;;;-142.59;100.00;56100.38;4915418;28;49845;-75